createdAt,value
2018-09-11T00:00:35.902Z,14.99
2018-09-11T00:01:35.877Z,14.96
2018-09-11T00:02:35.869Z,14.89
2018-09-11T00:03:35.864Z,14.94
2018-09-11T00:04:35.850Z,14.82
2018-09-11T00:05:35.860Z,14.81
2018-09-11T00:06:35.823Z,14.84
2018-09-11T00:07:35.808Z,14.78
2018-09-11T00:08:35.798Z,14.78
2018-09-11T00:09:35.790Z,14.72
2018-09-11T00:10:35.804Z,14.65
2018-09-11T00:11:35.773Z,14.55
2018-09-11T00:12:35.763Z,14.58
2018-09-11T00:13:35.750Z,14.54
2018-09-11T00:14:35.737Z,14.51
2018-09-11T00:15:35.742Z,14.65
2018-09-11T00:16:35.718Z,14.62
2018-09-11T00:17:35.705Z,14.68
2018-09-11T00:18:35.693Z,14.69
2018-09-11T00:19:35.678Z,14.73
2018-09-11T00:20:35.685Z,14.86
2018-09-11T00:21:35.658Z,14.89
2018-09-11T00:22:35.651Z,14.84
2018-09-11T00:23:35.643Z,14.81
2018-09-11T00:24:35.624Z,14.86
2018-09-11T00:25:35.633Z,14.82
2018-09-11T00:26:35.607Z,14.79
2018-09-11T00:27:35.599Z,14.81
2018-09-11T00:28:35.589Z,14.82
2018-09-11T00:29:35.577Z,14.81
2018-09-11T00:30:35.579Z,14.86
2018-09-11T00:31:35.560Z,14.84
2018-09-11T00:32:35.546Z,14.89
2018-09-11T00:33:35.553Z,14.94
2018-09-11T00:34:35.519Z,14.92
2018-09-11T00:35:35.522Z,14.92
2018-09-11T00:36:35.494Z,14.96
2018-09-11T00:37:35.493Z,14.97
2018-09-11T00:38:35.476Z,15.03
2018-09-11T00:39:35.470Z,15.10
2018-09-11T00:40:35.480Z,15.15
2018-09-11T00:41:35.444Z,15.21
2018-09-11T00:42:35.432Z,15.19
2018-09-11T00:43:35.418Z,15.15
2018-09-11T00:44:35.406Z,15.19
2018-09-11T00:45:35.415Z,15.19
2018-09-11T00:46:35.389Z,15.21
2018-09-11T00:47:35.411Z,15.19
2018-09-11T00:48:35.363Z,15.27
2018-09-11T00:49:35.355Z,15.35
2018-09-11T00:50:35.364Z,15.46
2018-09-11T00:51:35.338Z,15.42
2018-09-11T00:52:35.328Z,15.49
2018-09-11T00:53:35.314Z,15.51
2018-09-11T00:54:35.300Z,15.36
2018-09-11T00:55:35.312Z,15.46
2018-09-11T00:56:35.279Z,15.46
2018-09-11T00:57:35.270Z,15.43
2018-09-11T00:58:35.263Z,15.47
2018-09-11T00:59:35.257Z,15.43
2018-09-11T01:00:35.257Z,15.43
2018-09-11T01:01:35.227Z,15.46
2018-09-11T01:02:35.213Z,15.40
2018-09-11T01:03:35.203Z,15.52
2018-09-11T01:04:35.196Z,15.61
2018-09-11T01:05:35.205Z,15.62
2018-09-11T01:06:35.171Z,15.62
2018-09-11T01:07:35.157Z,15.73
2018-09-11T01:08:35.146Z,15.70
2018-09-11T01:09:35.137Z,15.67
2018-09-11T01:10:35.146Z,15.75
2018-09-11T01:11:35.124Z,15.75
2018-09-11T01:12:35.110Z,15.80
2018-09-11T01:13:35.097Z,15.73
2018-09-11T01:14:35.083Z,15.73
2018-09-11T01:15:35.089Z,15.76
2018-09-11T01:16:35.059Z,15.75
2018-09-11T01:17:35.059Z,15.70
2018-09-11T01:18:35.043Z,15.72
2018-09-11T01:19:35.039Z,15.70
2018-09-11T01:20:35.040Z,15.70
2018-09-11T01:21:35.008Z,15.76
2018-09-11T01:22:34.999Z,15.77
2018-09-11T01:23:34.991Z,15.70
2018-09-11T01:24:34.979Z,15.68
2018-09-11T01:25:34.984Z,15.73
2018-09-11T01:26:34.954Z,15.67
2018-09-11T01:27:34.941Z,15.72
2018-09-11T01:28:34.930Z,15.73
2018-09-11T01:29:34.922Z,15.72
2018-09-11T01:30:34.936Z,15.59
2018-09-11T01:31:34.905Z,15.62
2018-09-11T01:32:34.893Z,15.62
2018-09-11T01:33:34.876Z,15.51
2018-09-11T01:34:34.871Z,15.62
2018-09-11T01:35:34.877Z,15.46
2018-09-11T01:36:34.856Z,15.58
2018-09-11T01:37:34.834Z,15.57
2018-09-11T01:38:34.829Z,15.57
2018-09-11T01:39:34.816Z,15.49
2018-09-11T01:40:34.825Z,15.52
2018-09-11T01:41:34.797Z,15.47
2018-09-11T01:42:34.784Z,15.49
2018-09-11T01:43:34.770Z,15.54
2018-09-11T01:44:34.760Z,15.47
2018-09-11T01:45:34.766Z,15.51
2018-09-11T01:46:34.752Z,15.43
2018-09-11T01:47:34.734Z,15.49
2018-09-11T01:48:34.720Z,15.47
2018-09-11T01:49:34.713Z,15.52
2018-09-11T01:50:34.715Z,15.44
2018-09-11T01:51:34.685Z,15.46
2018-09-11T01:52:34.677Z,15.54
2018-09-11T01:53:34.672Z,15.54
2018-09-11T01:54:34.651Z,15.49
2018-09-11T01:55:34.661Z,15.61
2018-09-11T01:56:34.630Z,15.55
2018-09-11T01:57:34.624Z,15.75
2018-09-11T01:58:34.614Z,15.70
2018-09-11T01:59:34.600Z,15.73
2018-09-11T02:00:34.618Z,15.70
2018-09-11T02:01:34.582Z,15.55
2018-09-11T02:02:34.564Z,15.54
2018-09-11T02:03:34.555Z,15.57
2018-09-11T02:04:34.545Z,15.49
2018-09-11T02:05:34.550Z,15.59
2018-09-11T02:06:34.530Z,15.54
2018-09-11T02:07:34.516Z,15.49
2018-09-11T02:08:34.501Z,15.42
2018-09-11T02:09:34.488Z,15.29
2018-09-11T02:10:34.504Z,15.28
2018-09-11T02:11:34.471Z,15.36
2018-09-11T02:12:34.466Z,15.25
2018-09-11T02:13:34.456Z,15.27
2018-09-11T02:14:34.435Z,15.18
2018-09-11T02:15:34.442Z,15.15
2018-09-11T02:16:34.417Z,15.18
2018-09-11T02:17:34.406Z,15.22
2018-09-11T02:18:34.397Z,15.24
2018-09-11T02:19:34.385Z,15.18
2018-09-11T02:20:34.391Z,15.19
2018-09-11T02:21:34.365Z,15.25
2018-09-11T02:22:34.348Z,15.22
2018-09-11T02:23:34.338Z,15.33
2018-09-11T02:24:34.330Z,15.29
2018-09-11T02:25:34.333Z,15.39
2018-09-11T02:26:34.304Z,15.39
2018-09-11T02:27:34.295Z,15.36
2018-09-11T02:28:34.282Z,15.33
2018-09-11T02:29:34.272Z,15.40
2018-09-11T02:30:34.281Z,15.36
2018-09-11T02:31:34.256Z,15.31
2018-09-11T02:32:34.240Z,15.24
2018-09-11T02:33:34.229Z,15.17
2018-09-11T02:34:34.218Z,15.24
2018-09-11T02:35:34.270Z,15.19
2018-09-11T02:36:34.196Z,15.19
2018-09-11T02:37:34.192Z,15.19
2018-09-11T02:38:34.183Z,15.25
2018-09-11T02:39:34.169Z,15.31
2018-09-11T02:40:34.177Z,15.24
2018-09-11T02:41:34.144Z,15.31
2018-09-11T02:42:34.140Z,15.31
2018-09-11T02:43:34.132Z,15.19
2018-09-11T02:44:34.116Z,15.19
2018-09-11T02:45:34.130Z,15.15
2018-09-11T02:46:34.090Z,15.15
2018-09-11T02:47:34.082Z,15.18
2018-09-11T02:48:34.070Z,15.21
2018-09-11T02:49:34.058Z,15.24
2018-09-11T02:50:34.070Z,15.29
2018-09-11T02:51:34.039Z,15.35
2018-09-11T02:52:34.029Z,15.28
2018-09-11T02:53:34.018Z,15.22
2018-09-11T02:54:34.002Z,15.14
2018-09-11T02:55:34.012Z,15.17
2018-09-11T02:56:33.987Z,15.21
2018-09-11T02:57:33.976Z,15.22
2018-09-11T02:58:33.973Z,15.22
2018-09-11T02:59:33.951Z,15.27
2018-09-11T03:00:33.959Z,15.15
2018-09-11T03:01:33.934Z,15.19
2018-09-11T03:02:33.925Z,15.15
2018-09-11T03:03:33.910Z,15.19
2018-09-11T03:04:33.899Z,15.25
2018-09-11T03:05:33.908Z,15.21
2018-09-11T03:06:33.872Z,15.25
2018-09-11T03:07:33.863Z,15.18
2018-09-11T03:08:33.854Z,15.19
2018-09-11T03:09:33.839Z,15.21
2018-09-11T03:10:33.852Z,15.09
2018-09-11T03:11:33.822Z,15.15
2018-09-11T03:12:33.810Z,15.15
2018-09-11T03:13:33.796Z,15.07
2018-09-11T03:14:33.793Z,15.17
2018-09-11T03:15:33.800Z,15.04
2018-09-11T03:16:33.777Z,15.02
2018-09-11T03:17:33.763Z,14.97
2018-09-11T03:18:33.745Z,15.07
2018-09-11T03:19:33.733Z,15.07
2018-09-11T03:20:33.748Z,15.06
2018-09-11T03:21:33.715Z,14.97
2018-09-11T03:22:33.705Z,14.94
2018-09-11T03:23:33.694Z,14.99
2018-09-11T03:24:33.681Z,14.92
2018-09-11T03:25:33.673Z,15.03
2018-09-11T03:26:33.682Z,14.91
2018-09-11T03:27:33.649Z,15.02
2018-09-11T03:28:33.638Z,14.96
2018-09-11T03:29:33.630Z,14.96
2018-09-11T03:30:33.611Z,14.97
2018-09-11T03:31:33.616Z,15.06
2018-09-11T03:32:33.615Z,15.10
2018-09-11T03:33:33.579Z,15.15
2018-09-11T03:34:33.575Z,15.14
2018-09-11T03:35:33.561Z,15.09
2018-09-11T03:36:33.550Z,15.15
2018-09-11T03:37:33.566Z,15.11
2018-09-11T03:38:33.525Z,15.15
2018-09-11T03:39:33.520Z,15.15
2018-09-11T03:40:33.504Z,15.10
2018-09-11T03:41:33.491Z,15.14
2018-09-11T03:42:33.487Z,15.03
2018-09-11T03:43:33.516Z,15.00
2018-09-11T03:44:33.461Z,15.03
2018-09-11T03:45:33.452Z,15.02
2018-09-11T03:46:33.448Z,14.99
2018-09-11T03:47:33.430Z,15.02
2018-09-11T03:48:33.419Z,15.03
2018-09-11T03:49:33.437Z,14.99
2018-09-11T03:50:33.393Z,14.92
2018-09-11T03:51:33.385Z,14.96
2018-09-11T03:52:33.373Z,14.94
2018-09-11T03:53:33.361Z,14.89
2018-09-11T03:54:33.358Z,14.86
2018-09-11T03:55:33.361Z,14.94
2018-09-11T03:56:33.337Z,15.00
2018-09-11T03:57:33.324Z,15.07
2018-09-11T03:58:33.307Z,15.10
2018-09-11T03:59:33.298Z,15.10
2018-09-11T04:00:33.315Z,15.07
2018-09-11T04:01:33.283Z,15.06
2018-09-11T04:02:33.262Z,15.10
2018-09-11T04:03:33.254Z,15.18
2018-09-11T04:04:33.242Z,15.17
2018-09-11T04:05:33.408Z,15.14
2018-09-11T04:06:33.254Z,15.17
2018-09-11T04:07:33.217Z,15.17
2018-09-11T04:08:33.201Z,15.10
2018-09-11T04:09:33.192Z,15.07
2018-09-11T04:10:33.179Z,15.06
2018-09-11T04:11:33.166Z,15.18
2018-09-11T04:12:33.178Z,15.15
2018-09-11T04:13:33.141Z,15.10
2018-09-11T04:14:33.136Z,15.14
2018-09-11T04:15:33.124Z,15.10
2018-09-11T04:16:33.111Z,15.14
2018-09-11T04:17:33.098Z,15.25
2018-09-11T04:18:33.120Z,15.31
2018-09-11T04:19:33.080Z,15.29
2018-09-11T04:20:33.070Z,15.40
2018-09-11T04:21:33.069Z,15.47
2018-09-11T04:22:33.042Z,15.44
2018-09-11T04:23:33.044Z,15.42
2018-09-11T04:24:33.051Z,15.52
2018-09-11T04:25:33.041Z,15.47
2018-09-11T04:26:33.007Z,15.51
2018-09-11T04:27:32.993Z,15.49
2018-09-11T04:28:32.984Z,15.57
2018-09-11T04:29:32.974Z,15.54
2018-09-11T04:30:32.981Z,15.64
2018-09-11T04:31:32.948Z,15.62
2018-09-11T04:32:32.941Z,15.68
2018-09-11T04:33:32.931Z,15.68
2018-09-11T04:34:32.915Z,15.77
2018-09-11T04:35:32.905Z,15.68
2018-09-11T04:36:33.109Z,15.76
2018-09-11T04:37:32.880Z,15.82
2018-09-11T04:38:32.878Z,15.79
2018-09-11T04:39:32.875Z,15.70
2018-09-11T04:40:32.856Z,15.76
2018-09-11T04:41:32.868Z,15.75
2018-09-11T04:42:32.830Z,15.70
2018-09-11T04:43:32.819Z,15.75
2018-09-11T04:44:32.806Z,15.79
2018-09-11T04:45:32.797Z,15.82
2018-09-11T04:46:32.792Z,15.88
2018-09-11T04:47:32.805Z,15.91
2018-09-11T04:48:32.763Z,15.92
2018-09-11T04:49:32.753Z,15.94
2018-09-11T04:50:32.747Z,16.00
2018-09-11T04:51:32.737Z,16.04
2018-09-11T04:52:32.726Z,16.05
2018-09-11T04:53:32.740Z,16.02
2018-09-11T04:54:32.707Z,16.01
2018-09-11T04:55:32.688Z,16.08
2018-09-11T04:56:32.704Z,16.10
2018-09-11T04:57:32.696Z,16.09
2018-09-11T04:58:32.658Z,16.09
2018-09-11T04:59:32.675Z,16.10
2018-09-11T05:00:32.649Z,16.13
2018-09-11T05:01:32.632Z,16.04
2018-09-11T05:02:32.616Z,16.23
2018-09-11T05:03:32.608Z,16.23
2018-09-11T05:04:32.597Z,16.20
2018-09-11T05:05:32.621Z,16.20
2018-09-11T05:06:32.570Z,16.13
2018-09-11T05:07:32.564Z,16.15
2018-09-11T05:08:32.573Z,16.12
2018-09-11T05:09:32.545Z,16.13
2018-09-11T05:10:32.530Z,16.16
2018-09-11T05:11:32.561Z,16.17
2018-09-11T05:12:32.511Z,16.13
2018-09-11T05:13:32.513Z,16.15
2018-09-11T05:14:32.484Z,16.21
2018-09-11T05:15:32.477Z,16.24
2018-09-11T05:16:32.467Z,16.26
2018-09-11T05:17:32.489Z,16.20
2018-09-11T05:18:32.444Z,16.24
2018-09-11T05:19:32.435Z,16.13
2018-09-11T05:20:32.419Z,16.17
2018-09-11T05:21:32.408Z,16.20
2018-09-11T05:22:32.410Z,16.16
2018-09-11T05:23:32.439Z,16.23
2018-09-11T05:24:32.385Z,16.26
2018-09-11T05:25:32.368Z,16.21
2018-09-11T05:26:32.359Z,16.15
2018-09-11T05:27:32.433Z,16.15
2018-09-11T05:28:32.334Z,16.13
2018-09-11T05:29:32.348Z,16.13
2018-09-11T05:30:32.316Z,16.09
2018-09-11T05:31:32.305Z,15.98
2018-09-11T05:32:32.294Z,15.98
2018-09-11T05:33:32.281Z,15.94
2018-09-11T05:34:32.269Z,15.95
2018-09-11T05:35:32.279Z,15.95
2018-09-11T05:36:32.251Z,15.91
2018-09-11T05:37:32.237Z,16.02
2018-09-11T05:38:32.251Z,16.04
2018-09-11T05:39:32.242Z,16.00
2018-09-11T05:40:32.201Z,16.04
2018-09-11T05:41:32.252Z,16.01
2018-09-11T05:42:32.184Z,16.04
2018-09-11T05:43:32.178Z,16.05
2018-09-11T05:44:32.164Z,15.97
2018-09-11T05:45:32.158Z,16.02
2018-09-11T05:46:32.135Z,16.02
2018-09-11T05:47:32.151Z,16.00
2018-09-11T05:48:32.114Z,16.01
2018-09-11T05:49:32.108Z,16.01
2018-09-11T05:50:32.096Z,16.04
2018-09-11T05:51:32.088Z,16.05
2018-09-11T05:52:32.070Z,16.08
2018-09-11T05:53:32.080Z,16.01
2018-09-11T05:54:32.058Z,16.04
2018-09-11T05:55:32.052Z,16.01
2018-09-11T05:56:32.050Z,16.12
2018-09-11T05:57:32.030Z,16.05
2018-09-11T05:58:32.113Z,16.09
2018-09-11T05:59:32.008Z,16.16
2018-09-11T06:00:31.984Z,16.13
2018-09-11T06:01:31.975Z,16.20
2018-09-11T06:02:31.967Z,16.24
2018-09-11T06:03:31.959Z,16.13
2018-09-11T06:04:31.973Z,16.20
2018-09-11T06:05:31.971Z,16.21
2018-09-11T06:06:31.924Z,16.36
2018-09-11T06:07:31.908Z,16.21
2018-09-11T06:08:31.913Z,16.31
2018-09-11T06:09:31.891Z,16.28
2018-09-11T06:10:31.903Z,16.31
2018-09-11T06:11:31.871Z,16.32
2018-09-11T06:12:31.868Z,16.26
2018-09-11T06:13:31.845Z,16.33
2018-09-11T06:14:31.838Z,16.28
2018-09-11T06:15:31.827Z,16.24
2018-09-11T06:16:31.841Z,16.24
2018-09-11T06:17:31.806Z,16.29
2018-09-11T06:18:31.792Z,16.36
2018-09-11T06:19:31.779Z,16.42
2018-09-11T06:20:31.772Z,16.46
2018-09-11T06:21:31.758Z,16.58
2018-09-11T06:22:31.775Z,16.57
2018-09-11T06:23:31.740Z,16.66
2018-09-11T06:24:31.724Z,16.75
2018-09-11T06:25:31.714Z,16.81
2018-09-11T06:26:31.708Z,16.78
2018-09-11T06:27:31.697Z,16.74
2018-09-11T06:28:31.721Z,16.78
2018-09-11T06:29:31.673Z,16.78
2018-09-11T06:30:31.661Z,16.78
2018-09-11T06:31:31.656Z,16.78
2018-09-11T06:32:31.637Z,16.71
2018-09-11T06:33:31.628Z,16.78
2018-09-11T06:34:31.647Z,16.79
2018-09-11T06:35:31.721Z,16.69
2018-09-11T06:36:31.602Z,16.72
2018-09-11T06:37:31.591Z,16.72
2018-09-11T06:38:31.574Z,16.64
2018-09-11T06:39:31.563Z,16.76
2018-09-11T06:40:31.622Z,16.78
2018-09-11T06:41:31.560Z,16.78
2018-09-11T06:42:31.565Z,16.79
2018-09-11T06:43:31.526Z,16.83
2018-09-11T06:44:31.533Z,16.83
2018-09-11T06:45:31.500Z,16.86
2018-09-11T06:46:31.511Z,16.87
2018-09-11T06:47:31.494Z,16.78
2018-09-11T06:48:31.471Z,16.81
2018-09-11T06:49:31.457Z,16.79
2018-09-11T06:50:31.497Z,16.74
2018-09-11T06:51:31.470Z,16.72
2018-09-11T06:52:31.420Z,16.71
2018-09-11T06:53:31.412Z,16.75
2018-09-11T06:54:31.411Z,16.71
2018-09-11T06:55:31.395Z,16.68
2018-09-11T06:56:31.378Z,16.66
2018-09-11T06:57:32.416Z,16.68
2018-09-11T06:58:31.361Z,16.74
2018-09-11T06:59:31.368Z,16.81
2018-09-11T07:00:31.396Z,16.91
2018-09-11T07:01:31.328Z,16.83
2018-09-11T07:02:31.318Z,16.84
2018-09-11T07:03:31.356Z,16.89
2018-09-11T07:04:31.301Z,17.02
2018-09-11T07:05:31.281Z,17.11
2018-09-11T07:06:31.273Z,17.24
2018-09-11T07:07:31.265Z,17.24
2018-09-11T07:08:32.439Z,17.29
2018-09-11T07:09:31.613Z,17.26
2018-09-11T07:10:31.227Z,17.27
2018-09-11T07:11:31.224Z,17.39
2018-09-11T07:12:31.214Z,17.48
2018-09-11T07:13:31.197Z,17.51
2018-09-11T07:14:31.239Z,17.63
2018-09-11T07:15:31.210Z,17.56
2018-09-11T07:16:31.160Z,17.57
2018-09-11T07:17:31.152Z,17.68
2018-09-11T07:18:31.142Z,17.63
2018-09-11T07:19:31.224Z,17.72
2018-09-11T07:20:31.128Z,17.80
2018-09-11T07:21:31.136Z,17.85
2018-09-11T07:22:31.102Z,17.82
2018-09-11T07:23:31.099Z,17.89
2018-09-11T07:24:31.850Z,17.90
2018-09-11T07:25:31.068Z,17.85
2018-09-11T07:26:31.056Z,17.89
2018-09-11T07:27:31.082Z,17.85
2018-09-11T07:28:31.050Z,17.95
2018-09-11T07:29:31.025Z,17.94
2018-09-11T07:30:31.087Z,17.95
2018-09-11T07:31:31.007Z,17.92
2018-09-11T07:32:31.043Z,17.97
2018-09-11T07:33:30.998Z,17.94
2018-09-11T07:34:30.969Z,17.97
2018-09-11T07:35:30.955Z,18.01
2018-09-11T07:36:31.027Z,18.11
2018-09-11T07:37:30.937Z,18.07
2018-09-11T07:38:30.969Z,18.16
2018-09-11T07:39:30.919Z,18.25
2018-09-11T07:40:30.910Z,18.28
2018-09-11T07:41:30.895Z,18.28
2018-09-11T07:42:30.882Z,18.22
2018-09-11T07:43:30.906Z,18.16
2018-09-11T07:44:30.925Z,18.29
2018-09-11T07:45:30.917Z,18.28
2018-09-11T07:46:30.871Z,18.34
2018-09-11T07:47:30.827Z,18.33
2018-09-11T07:48:30.821Z,18.40
2018-09-11T07:49:30.808Z,18.41
2018-09-11T07:50:30.818Z,18.50
2018-09-11T07:51:30.791Z,18.49
2018-09-11T07:52:30.889Z,18.56
2018-09-11T07:53:30.768Z,18.56
2018-09-11T07:54:30.756Z,18.60
2018-09-11T07:55:30.773Z,18.75
2018-09-11T07:56:30.732Z,18.74
2018-09-11T07:57:30.742Z,18.60
2018-09-11T07:58:30.717Z,18.75
2018-09-11T07:59:30.705Z,18.70
2018-09-11T08:00:30.709Z,18.81
2018-09-11T08:01:30.705Z,18.95
2018-09-11T08:02:30.672Z,18.98
2018-09-11T08:03:30.670Z,19.00
2018-09-11T08:04:30.652Z,19.00
2018-09-11T08:05:30.650Z,19.22
2018-09-11T08:06:30.626Z,19.31
2018-09-11T08:07:30.639Z,19.37
2018-09-11T08:08:30.602Z,19.37
2018-09-11T08:09:30.613Z,19.34
2018-09-11T08:10:30.588Z,19.37
2018-09-11T08:11:30.578Z,19.37
2018-09-11T08:12:30.567Z,19.30
2018-09-11T08:13:30.585Z,19.36
2018-09-11T08:14:30.546Z,19.49
2018-09-11T08:15:30.540Z,19.59
2018-09-11T08:16:30.555Z,19.55
2018-09-11T08:17:30.516Z,19.54
2018-09-11T08:18:30.497Z,19.54
2018-09-11T08:19:30.513Z,19.58
2018-09-11T08:20:30.506Z,19.56
2018-09-11T08:21:30.466Z,19.55
2018-09-11T08:22:30.457Z,19.62
2018-09-11T08:23:30.447Z,19.63
2018-09-11T08:24:30.445Z,19.81
2018-09-11T08:25:30.452Z,19.92
2018-09-11T08:26:30.419Z,19.96
2018-09-11T08:27:30.397Z,20.07
2018-09-11T08:28:30.386Z,20.07
2018-09-11T08:29:30.384Z,19.92
2018-09-11T08:30:30.369Z,19.82
2018-09-11T08:31:30.412Z,19.82
2018-09-11T08:32:30.344Z,19.88
2018-09-11T08:33:30.352Z,19.86
2018-09-11T08:34:30.364Z,19.99
2018-09-11T08:35:30.317Z,20.09
2018-09-11T08:36:30.318Z,20.03
2018-09-11T08:37:30.323Z,20.06
2018-09-11T08:38:30.290Z,19.92
2018-09-11T08:39:30.267Z,19.91
2018-09-11T08:40:30.255Z,19.89
2018-09-11T08:41:30.250Z,19.88
2018-09-11T08:42:30.244Z,19.81
2018-09-11T08:43:30.260Z,19.82
2018-09-11T08:44:30.229Z,20.02
2018-09-11T08:45:30.330Z,20.04
2018-09-11T08:46:30.202Z,20.11
2018-09-11T08:47:30.201Z,20.07
2018-09-11T08:48:30.176Z,20.07
2018-09-11T08:49:30.187Z,20.37
2018-09-11T08:50:30.149Z,20.43
2018-09-11T08:51:30.138Z,20.34
2018-09-11T08:52:30.175Z,20.40
2018-09-11T08:53:30.134Z,20.39
2018-09-11T08:54:30.108Z,20.36
2018-09-11T08:55:30.126Z,20.47
2018-09-11T08:56:30.086Z,20.58
2018-09-11T08:57:30.096Z,20.60
2018-09-11T08:58:30.094Z,20.63
2018-09-11T08:59:30.056Z,20.62
2018-09-11T09:00:30.043Z,20.66
2018-09-11T09:01:30.051Z,20.55
2018-09-11T09:02:30.079Z,20.62
2018-09-11T09:03:30.016Z,20.72
2018-09-11T09:04:29.999Z,20.74
2018-09-11T09:05:29.988Z,20.74
2018-09-11T09:06:30.005Z,20.75
2018-09-11T09:07:29.980Z,20.67
2018-09-11T09:08:29.983Z,20.56
2018-09-11T09:09:29.951Z,20.75
2018-09-11T09:10:29.935Z,20.81
2018-09-11T09:11:29.924Z,20.96
2018-09-11T09:12:29.939Z,21.05
2018-09-11T09:13:29.901Z,20.97
2018-09-11T09:14:29.898Z,21.02
2018-09-11T09:15:29.943Z,20.96
2018-09-11T09:16:29.877Z,20.93
2018-09-11T09:17:29.865Z,20.85
2018-09-11T09:18:29.870Z,20.96
2018-09-11T09:19:29.850Z,20.93
2018-09-11T09:20:29.857Z,20.99
2018-09-11T09:21:29.823Z,21.12
2018-09-11T09:22:29.809Z,21.24
2018-09-11T09:23:29.795Z,21.39
2018-09-11T09:24:29.810Z,21.20
2018-09-11T09:25:29.774Z,20.97
2018-09-11T09:26:29.768Z,20.93
2018-09-11T09:27:29.794Z,20.93
2018-09-11T09:28:29.743Z,20.97
2018-09-11T09:29:29.740Z,20.97
2018-09-11T09:30:29.771Z,21.03
2018-09-11T09:31:29.710Z,20.90
2018-09-11T09:32:29.705Z,21.09
2018-09-11T09:33:29.691Z,21.06
2018-09-11T09:34:29.686Z,20.99
2018-09-11T09:35:29.669Z,21.03
2018-09-11T09:36:29.692Z,21.09
2018-09-11T09:37:29.649Z,21.32
2018-09-11T09:38:29.642Z,21.45
2018-09-11T09:39:29.643Z,21.70
2018-09-11T09:40:29.615Z,21.88
2018-09-11T09:41:29.612Z,21.72
2018-09-11T09:42:29.627Z,21.75
2018-09-11T09:43:29.584Z,21.88
2018-09-11T09:44:29.571Z,21.93
2018-09-11T09:45:29.565Z,21.73
2018-09-11T09:46:29.555Z,21.70
2018-09-11T09:47:29.546Z,21.91
2018-09-11T09:48:29.563Z,22.02
2018-09-11T09:49:29.523Z,22.10
2018-09-11T09:50:29.540Z,22.08
2018-09-11T09:51:29.502Z,22.13
2018-09-11T09:52:29.490Z,22.18
2018-09-11T09:53:29.479Z,22.30
2018-09-11T09:54:29.495Z,22.29
2018-09-11T09:55:29.454Z,22.48
2018-09-11T09:56:29.443Z,22.33
2018-09-11T09:57:29.436Z,22.36
2018-09-11T09:58:29.425Z,22.33
2018-09-11T09:59:29.413Z,22.28
2018-09-11T10:00:29.430Z,22.13
2018-09-11T10:01:29.386Z,21.99
2018-09-11T10:02:29.379Z,22.11
2018-09-11T10:03:29.367Z,22.29
2018-09-11T10:04:29.356Z,22.35
2018-09-11T10:05:29.354Z,22.35
2018-09-11T10:06:29.364Z,22.18
2018-09-11T10:07:29.323Z,22.36
2018-09-11T10:08:29.310Z,22.47
2018-09-11T10:09:29.306Z,22.54
2018-09-11T10:10:29.294Z,22.57
2018-09-11T10:11:29.313Z,22.36
2018-09-11T10:12:29.300Z,22.15
2018-09-11T10:13:29.265Z,22.18
2018-09-11T10:14:29.251Z,22.23
2018-09-11T10:15:29.239Z,22.14
2018-09-11T10:16:29.226Z,22.18
2018-09-11T10:17:29.269Z,22.23
2018-09-11T10:18:29.233Z,22.30
2018-09-11T10:19:29.198Z,22.36
2018-09-11T10:20:29.190Z,22.51
2018-09-11T10:21:29.171Z,22.69
2018-09-11T10:22:29.163Z,22.73
2018-09-11T10:23:29.160Z,22.72
2018-09-11T10:24:29.346Z,22.84
2018-09-11T10:25:29.133Z,22.78
2018-09-11T10:26:29.126Z,22.93
2018-09-11T10:27:29.149Z,22.99
2018-09-11T10:28:29.098Z,22.99
2018-09-11T10:29:29.091Z,22.78
2018-09-11T10:30:29.114Z,22.88
2018-09-11T10:31:29.071Z,22.81
2018-09-11T10:32:29.104Z,22.85
2018-09-11T10:33:29.046Z,22.96
2018-09-11T10:34:29.041Z,22.99
2018-09-11T10:35:29.036Z,22.96
2018-09-11T10:36:29.037Z,23.02
2018-09-11T10:37:29.019Z,23.10
2018-09-11T10:38:28.996Z,23.27
2018-09-11T10:39:29.016Z,23.36
2018-09-11T10:40:28.974Z,23.37
2018-09-11T10:41:28.967Z,23.31
2018-09-11T10:42:28.981Z,23.37
2018-09-11T10:43:28.940Z,23.03
2018-09-11T10:44:28.934Z,22.99
2018-09-11T10:45:28.913Z,23.00
2018-09-11T10:46:28.904Z,23.13
2018-09-11T10:47:28.894Z,23.23
2018-09-11T10:48:28.928Z,23.36
2018-09-11T10:49:28.879Z,23.21
2018-09-11T10:50:28.874Z,23.10
2018-09-11T10:51:28.875Z,23.08
2018-09-11T10:52:28.851Z,23.32
2018-09-11T10:53:28.855Z,23.32
2018-09-11T10:54:28.854Z,23.36
2018-09-11T10:55:28.826Z,23.24
2018-09-11T10:56:28.808Z,23.24
2018-09-11T10:57:28.797Z,23.27
2018-09-11T10:58:28.777Z,23.31
2018-09-11T10:59:28.765Z,23.41
2018-09-11T11:00:28.883Z,23.36
2018-09-11T11:01:28.749Z,23.32
2018-09-11T11:02:28.735Z,23.25
2018-09-11T11:03:28.724Z,23.36
2018-09-11T11:04:28.715Z,23.43
2018-09-11T11:05:28.698Z,23.74
2018-09-11T11:06:28.724Z,23.87
2018-09-11T11:07:28.679Z,24.05
2018-09-11T11:08:28.669Z,23.96
2018-09-11T11:09:28.671Z,23.96
2018-09-11T11:10:28.660Z,23.84
2018-09-11T11:11:28.637Z,23.92
2018-09-11T11:12:28.657Z,23.74
2018-09-11T11:13:28.665Z,23.73
2018-09-11T11:14:28.640Z,23.77
2018-09-11T11:15:28.597Z,23.68
2018-09-11T11:16:28.592Z,23.86
2018-09-11T11:17:28.576Z,24.05
2018-09-11T11:18:28.628Z,24.14
2018-09-11T11:19:28.557Z,24.33
2018-09-11T11:20:28.542Z,24.29
2018-09-11T11:21:28.539Z,24.16
2018-09-11T11:22:28.526Z,24.18
2018-09-11T11:23:28.512Z,24.18
2018-09-11T11:24:28.530Z,24.26
2018-09-11T11:25:28.491Z,24.26
2018-09-11T11:26:28.477Z,24.28
2018-09-11T11:27:28.469Z,24.18
2018-09-11T11:28:28.459Z,24.26
2018-09-11T11:29:28.455Z,24.36
2018-09-11T11:30:28.470Z,24.38
2018-09-11T11:31:28.422Z,24.55
2018-09-11T11:32:28.409Z,24.51
2018-09-11T11:33:28.405Z,24.68
2018-09-11T11:34:28.401Z,24.95
2018-09-11T11:35:28.415Z,24.86
2018-09-11T11:36:28.466Z,24.98
2018-09-11T11:37:28.530Z,24.86
2018-09-11T11:38:28.345Z,25.23
2018-09-11T11:39:28.335Z,25.26
2018-09-11T11:40:28.324Z,25.35
2018-09-11T11:41:28.321Z,25.46
2018-09-11T11:42:28.450Z,25.44
2018-09-11T11:43:28.296Z,25.46
2018-09-11T11:44:28.279Z,25.53
2018-09-11T11:45:28.279Z,25.60
2018-09-11T11:46:28.260Z,25.43
2018-09-11T11:47:28.276Z,25.54
2018-09-11T11:48:28.246Z,25.68
2018-09-11T11:49:28.223Z,25.60
2018-09-11T11:50:28.214Z,25.55
2018-09-11T11:51:28.205Z,25.53
2018-09-11T11:52:28.190Z,25.68
2018-09-11T11:53:28.212Z,25.62
2018-09-11T11:54:28.174Z,25.70
2018-09-11T11:55:28.184Z,25.73
2018-09-11T11:56:28.185Z,25.59
2018-09-11T11:57:28.134Z,25.84
2018-09-11T11:58:28.126Z,25.55
2018-09-11T11:59:28.148Z,25.68
2018-09-11T12:00:28.110Z,25.81
2018-09-11T12:01:28.105Z,25.75
2018-09-11T12:02:28.083Z,25.55
2018-09-11T12:03:28.072Z,25.75
2018-09-11T12:04:28.058Z,25.84
2018-09-11T12:05:28.083Z,25.91
2018-09-11T12:06:28.040Z,26.06
2018-09-11T12:07:28.030Z,26.21
2018-09-11T12:08:28.022Z,26.51
2018-09-11T12:09:28.004Z,26.84
2018-09-11T12:10:27.998Z,26.84
2018-09-11T12:11:28.010Z,27.02
2018-09-11T12:12:27.975Z,27.15
2018-09-11T12:13:27.968Z,27.32
2018-09-11T12:14:27.954Z,26.77
2018-09-11T12:15:27.940Z,26.74
2018-09-11T12:16:27.950Z,26.80
2018-09-11T12:17:27.985Z,26.96
2018-09-11T12:18:27.912Z,26.92
2018-09-11T12:19:27.903Z,26.63
2018-09-11T12:20:27.893Z,26.29
2018-09-11T12:21:27.881Z,26.19
2018-09-11T12:22:27.868Z,26.28
2018-09-11T12:23:27.885Z,26.29
2018-09-11T12:24:27.866Z,26.41
2018-09-11T12:25:27.890Z,26.59
2018-09-11T12:26:27.827Z,26.58
2018-09-11T12:27:27.926Z,26.58
2018-09-11T12:28:27.809Z,26.56
2018-09-11T12:29:27.819Z,26.60
2018-09-11T12:30:27.782Z,26.34
2018-09-11T12:31:27.776Z,26.21
2018-09-11T12:32:27.767Z,26.45
2018-09-11T12:33:27.750Z,26.40
2018-09-11T12:34:27.740Z,26.53
2018-09-11T12:35:27.759Z,26.68
2018-09-11T12:36:27.715Z,26.95
2018-09-11T12:37:27.712Z,27.15
2018-09-11T12:38:27.719Z,27.10
2018-09-11T12:39:27.689Z,27.17
2018-09-11T12:40:27.679Z,27.22
2018-09-11T12:41:27.688Z,27.17
2018-09-11T12:42:27.654Z,26.62
2018-09-11T12:43:27.645Z,26.44
2018-09-11T12:44:27.634Z,26.44
2018-09-11T12:45:27.629Z,26.52
2018-09-11T12:46:27.912Z,26.41
2018-09-11T12:47:27.807Z,26.63
2018-09-11T12:48:27.695Z,26.90
2018-09-11T12:49:27.611Z,26.65
2018-09-11T12:50:27.573Z,26.77
2018-09-11T12:51:27.563Z,26.80
2018-09-11T12:52:27.641Z,27.12